Time;durP1;ratioP1;P1;durP2;ratioP2;P2;SDS_P1;SDS_P2;PMS_P1;PMS_P2;Temp;Humidity;BMP_temperature;BMP_pressure;BME280_temperature;BME280_humidity;BME280_pressure;Samples;Min_cycle;Max_cycle;Signal;HPM_P1;HPM_P2
2022/01/08 00:00:26;;;;;;;3.75;3.55;;;2.40;79.80;;;;;;5054574;28;20559;-57
2022/01/08 00:02:53;;;;;;;3.80;3.50;;;2.50;79.40;;;;;;5054400;28;20580;-58
2022/01/08 00:05:20;;;;;;;4.10;3.80;;;2.60;79.40;;;;;;5054395;28;20728;-58
2022/01/08 00:07:49;;;;;;;3.50;3.30;;;2.60;78.90;;;;;;5054329;28;20229;-57
2022/01/08 00:10:16;;;;;;;3.67;3.40;;;2.60;78.50;;;;;;5054113;28;20292;-56
2022/01/08 00:12:43;;;;;;;3.70;3.50;;;2.60;78.90;;;;;;5052917;28;20205;-57
2022/01/08 00:15:10;;;;;;;4.20;3.40;;;2.60;78.50;;;;;;5054009;28;20209;-58
2022/01/08 00:17:37;;;;;;;3.45;3.15;;;2.60;78.40;;;;;;5054242;28;20300;-57
2022/01/08 00:20:06;;;;;;;3.38;3.28;;;2.70;78.80;;;;;;5054325;28;20563;-58
2022/01/08 00:22:33;;;;;;;4.00;3.65;;;2.60;78.00;;;;;;5054177;28;20255;-57
2022/01/08 00:25:02;;;;;;;4.10;3.80;;;2.70;78.40;;;;;;5053904;28;20212;-58
2022/01/08 00:27:29;;;;;;;3.60;3.40;;;2.70;78.00;;;;;;5052656;28;20279;-56
2022/01/08 00:29:56;;;;;;;4.55;3.72;;;2.70;78.40;;;;;;5053725;28;20206;-57
2022/01/08 00:32:23;;;;;;;4.00;3.50;;;2.70;78.30;;;;;;5053922;28;20297;-57
2022/01/08 00:34:50;;;;;;;4.07;3.70;;;2.80;78.80;;;;;;5053945;28;20205;-56
2022/01/08 00:37:17;;;;;;;3.58;3.33;;;2.80;78.20;;;;;;5053849;28;20660;-57
2022/01/08 00:39:44;;;;;;;4.18;3.83;;;2.80;78.00;;;;;;5053675;28;20212;-56
2022/01/08 00:42:13;;;;;;;4.32;3.92;;;2.90;78.50;;;;;;5052407;28;20284;-56
2022/01/08 00:44:40;;;;;;;4.50;4.20;;;2.90;77.60;;;;;;5053610;28;20209;-58
2022/01/08 00:47:06;;;;;;;4.68;4.28;;;2.80;77.30;;;;;;5053527;28;20661;-58
2022/01/08 00:49:34;;;;;;;4.90;4.50;;;2.80;77.70;;;;;;5053616;28;20560;-57
2022/01/08 00:52:00;;;;;;;3.83;3.63;;;2.70;77.90;;;;;;5053164;28;20296;-58
2022/01/08 00:54:27;;;;;;;4.57;4.20;;;2.70;78.10;;;;;;5053446;28;20208;-57
2022/01/08 00:56:54;;;;;;;4.32;4.03;;;2.70;78.40;;;;;;5052287;28;20212;-58
2022/01/08 00:59:22;;;;;;;4.22;3.92;;;2.70;78.30;;;;;;5053301;28;20236;-58
2022/01/08 01:01:49;;;;;;;4.75;4.30;;;2.70;78.40;;;;;;5053271;28;20309;-58
2022/01/08 01:04:16;;;;;;;4.20;3.90;;;2.60;78.70;;;;;;5053445;28;20688;-58
2022/01/08 01:06:43;;;;;;;4.72;4.30;;;2.60;79.00;;;;;;5053055;28;20558;-57
2022/01/08 01:09:10;;;;;;;4.38;4.05;;;2.60;78.90;;;;;;5053184;28;20251;-58
2022/01/08 01:11:37;;;;;;;4.50;4.10;;;2.60;79.00;;;;;;5051903;28;20245;-57
2022/01/08 01:14:04;;;;;;;4.70;4.30;;;2.50;79.10;;;;;;5052956;28;20660;-58
2022/01/08 01:16:32;;;;;;;4.53;4.10;;;2.50;79.50;;;;;;5053124;28;20674;-59
2022/01/08 01:19:02;;;;;;;4.32;4.03;;;2.50;79.80;;;;;;5053084;28;20204;-59
2022/01/08 01:21:29;;;;;;;4.90;4.35;;;2.60;79.80;;;;;;5053041;28;20205;-59
2022/01/08 01:23:56;;;;;;;4.45;4.05;;;2.70;79.70;;;;;;5053175;28;20201;-59
2022/01/08 01:26:26;;;;;;;5.10;4.50;;;2.70;79.60;;;;;;5051658;28;20236;-59
2022/01/08 01:28:58;;;;;;;4.05;3.65;;;2.80;79.30;;;;;;5052872;28;20217;-58
2022/01/08 01:47:57;;;;;;;4.32;3.85;;;2.80;78.90;;;;;;5052797;28;20718;-59
2022/01/08 01:50:25;;;;;;;4.60;4.20;;;2.90;78.70;;;;;;5052645;28;20205;-59
2022/01/08 01:52:52;;;;;;;4.70;4.30;;;2.80;78.90;;;;;;5052584;28;20629;-59
2022/01/08 01:55:19;;;;;;;3.97;3.67;;;2.80;79.30;;;;;;5052657;28;20202;-58
2022/01/08 01:57:48;;;;;;;4.25;3.88;;;2.80;79.20;;;;;;5051424;28;20212;-58
2022/01/08 02:00:15;;;;;;;4.90;4.30;;;2.90;79.10;;;;;;5052550;28;20208;-56
2022/01/08 02:02:42;;;;;;;4.13;3.83;;;2.90;78.90;;;;;;5053549;28;20228;-58
2022/01/08 02:05:09;;;;;;;4.10;3.80;;;2.80;78.80;;;;;;5056494;28;20201;-59
2022/01/08 02:07:38;;;;;;;4.22;3.92;;;2.80;79.40;;;;;;5056568;28;20324;-58
2022/01/08 02:10:06;;;;;;;4.22;3.90;;;2.80;79.20;;;;;;5056423;28;20748;-57
2022/01/08 02:12:35;;;;;;;4.30;4.00;;;2.70;79.10;;;;;;5055489;28;20559;-57
2022/01/08 02:15:02;;;;;;;4.32;3.50;;;2.70;79.40;;;;;;5056161;28;20216;-59
2022/01/08 02:17:29;;;;;;;3.75;3.55;;;2.60;80.10;;;;;;5056491;28;20248;-56
2022/01/08 02:19:57;;;;;;;4.00;3.70;;;2.60;80.20;;;;;;5056333;28;20633;-58
2022/01/08 02:22:24;;;;;;;4.20;3.90;;;2.60;80.30;;;;;;5056367;28;20650;-58
2022/01/08 02:24:51;;;;;;;3.53;3.30;;;2.60;80.40;;;;;;5056416;28;20292;-59
2022/01/08 02:27:18;;;;;;;3.75;3.53;;;2.60;80.60;;;;;;5054984;28;20236;-59
2022/01/08 02:29:46;;;;;;;3.45;3.15;;;2.50;81.20;;;;;;5056070;28;20201;-58
2022/01/08 02:32:16;;;;;;;3.20;2.90;;;2.50;81.80;;;;;;5056189;28;20209;-57
2022/01/08 02:34:45;;;;;;;3.20;3.00;;;2.50;82.30;;;;;;5056321;28;20202;-59
2022/01/08 02:37:14;;;;;;;3.58;2.90;;;2.50;82.50;;;;;;5056066;28;20209;-56
2022/01/08 02:39:43;;;;;;;3.00;2.80;;;2.50;82.80;;;;;;5056135;28;20216;-56
2022/01/08 02:42:16;;;;;;;2.70;2.53;;;2.60;82.70;;;;;;5054834;28;20205;-59
2022/01/08 02:44:44;;;;;;;3.20;3.00;;;2.60;82.60;;;;;;5055893;28;20635;-57
2022/01/08 02:47:10;;;;;;;3.20;3.00;;;2.70;82.20;;;;;;5055720;28;20696;-58
2022/01/08 02:49:38;;;;;;;2.88;2.75;;;2.70;82.20;;;;;;5055924;28;20223;-59
2022/01/08 02:52:07;;;;;;;3.70;3.50;;;2.70;82.00;;;;;;5055965;28;20215;-58
2022/01/08 02:54:35;;;;;;;3.67;3.47;;;2.80;81.60;;;;;;5055801;28;20540;-58
2022/01/08 02:57:03;;;;;;;3.80;3.50;;;2.70;81.90;;;;;;5054439;28;20207;-58
2022/01/08 02:59:32;;;;;;;3.30;3.10;;;2.70;82.20;;;;;;5055375;28;20660;-55
2022/01/08 03:01:58;;;;;;;3.40;3.20;;;2.70;82.70;;;;;;5055621;28;20225;-55
2022/01/08 03:04:25;;;;;;;3.25;3.05;;;2.60;82.90;;;;;;5055652;28;20225;-59
2022/01/08 03:06:52;;;;;;;4.05;2.90;;;2.60;83.40;;;;;;5055526;28;20232;-57
2022/01/08 03:09:19;;;;;;;3.33;3.03;;;2.60;83.90;;;;;;5055548;28;20613;-57
2022/01/08 03:11:47;;;;;;;3.08;2.88;;;2.60;84.20;;;;;;5054033;28;20232;-57
2022/01/08 03:14:14;;;;;;;3.00;2.70;;;2.50;84.70;;;;;;5054886;28;20562;-58
2022/01/08 03:16:41;;;;;;;2.83;2.60;;;2.50;85.20;;;;;;5055471;28;20284;-58
2022/01/08 03:19:11;;;;;;;2.90;2.70;;;2.50;85.70;;;;;;5055302;28;20229;-58
2022/01/08 03:21:41;;;;;;;2.97;2.60;;;2.40;86.00;;;;;;5055178;28;20205;-59
2022/01/08 03:24:10;;;;;;;2.70;2.50;;;2.40;86.50;;;;;;5055458;28;20209;-59
2022/01/08 03:26:38;;;;;;;3.75;2.80;;;2.30;87.20;;;;;;5053653;28;20205;-59
2022/01/08 03:29:06;;;;;;;3.03;2.75;;;2.30;87.80;;;;;;5055115;28;20201;-59
2022/01/08 03:31:33;;;;;;;2.75;2.55;;;2.30;87.90;;;;;;5055045;28;20213;-58
2022/01/08 03:34:00;;;;;;;3.00;2.80;;;2.30;88.20;;;;;;5055092;28;20236;-59
2022/01/08 03:36:27;;;;;;;2.85;2.58;;;2.30;88.60;;;;;;5054993;28;20215;-59
2022/01/08 03:38:54;;;;;;;3.30;2.72;;;2.20;89.20;;;;;;5054918;28;20292;-58
2022/01/08 03:41:22;;;;;;;2.30;2.10;;;2.20;89.70;;;;;;5053534;28;20215;-57
2022/01/08 03:43:50;;;;;;;2.80;2.60;;;2.10;89.90;;;;;;5054577;28;20206;-58
2022/01/08 03:46:20;;;;;;;2.60;2.40;;;2.00;90.50;;;;;;5054840;28;20208;-59
2022/01/08 03:49:10;;;;;;;3.20;2.70;;;2.00;91.10;;;;;;5054655;28;20229;-57
2022/01/08 03:51:35;;;;;;;2.80;2.58;;;2.00;91.50;;;;;;5054486;28;20224;-59
2022/01/08 03:54:02;;;;;;;2.83;2.63;;;1.80;92.10;;;;;;5054721;28;20229;-58
2022/01/08 03:56:29;;;;;;;3.80;3.13;;;1.80;92.70;;;;;;5053476;28;20208;-56
2022/01/08 03:58:56;;;;;;;3.78;2.70;;;1.80;92.80;;;;;;5054474;28;20211;-59
2022/01/08 04:01:24;;;;;;;4.97;3.25;;;1.80;93.00;;;;;;5054567;28;20252;-59
2022/01/08 04:03:51;;;;;;;4.38;3.10;;;1.80;93.30;;;;;;5054566;28;20208;-59
2022/01/08 04:06:18;;;;;;;4.85;3.50;;;1.70;93.50;;;;;;5054354;28;20216;-58
2022/01/08 04:08:45;;;;;;;4.43;3.15;;;1.70;93.90;;;;;;5054462;28;20586;-60
2022/01/08 04:11:12;;;;;;;3.72;3.00;;;1.70;94.20;;;;;;5052870;28;20240;-57
2022/01/08 04:13:41;;;;;;;4.30;3.20;;;1.70;94.30;;;;;;5054343;28;20301;-57
2022/01/08 04:16:11;;;;;;;4.20;3.75;;;1.70;94.30;;;;;;5054294;28;20212;-58
2022/01/08 04:18:40;;;;;;;3.95;3.15;;;1.70;94.10;;;;;;5054247;28;20295;-59
2022/01/08 04:21:30;;;;;;;4.30;3.35;;;1.70;94.20;;;;;;5054128;28;20205;-58
2022/01/08 04:24:00;;;;;;;4.03;3.15;;;1.70;94.10;;;;;;5054076;28;20208;-59
2022/01/08 04:26:27;;;;;;;4.53;3.60;;;1.80;94.10;;;;;;5051946;28;20243;-57
2022/01/08 04:28:55;;;;;;;5.43;3.67;;;1.80;93.80;;;;;;5053869;28;20230;-59
2022/01/08 04:31:23;;;;;;;4.72;3.78;;;1.80;93.90;;;;;;5053888;28;20223;-58
2022/01/08 04:33:51;;;;;;;5.18;4.00;;;1.80;93.90;;;;;;5054052;28;20205;-59
2022/01/08 04:36:18;;;;;;;4.20;3.13;;;1.80;93.90;;;;;;5053878;28;20308;-57
2022/01/08 04:38:45;;;;;;;4.22;3.45;;;1.80;93.80;;;;;;5053769;28;20198;-59
2022/01/08 04:41:12;;;;;;;4.25;3.15;;;1.80;94.00;;;;;;5052511;28;20208;-59
2022/01/08 04:43:43;;;;;;;4.70;3.45;;;1.70;94.40;;;;;;5053507;28;20660;-57
2022/01/08 04:46:10;;;;;;;4.10;3.70;;;1.60;94.90;;;;;;5053502;28;20244;-60
2022/01/08 04:48:37;;;;;;;5.47;3.90;;;1.50;95.60;;;;;;5053487;28;20260;-63
2022/01/08 04:51:05;;;;;;;4.60;3.65;;;1.40;96.00;;;;;;5053639;28;20212;-64
2022/01/08 04:53:32;;;;;;;3.42;3.13;;;1.40;96.30;;;;;;5053568;28;20694;-72
2022/01/08 04:55:59;;;;;;;4.43;3.53;;;1.40;96.30;;;;;;5053462;28;20212;-65
2022/01/08 04:58:27;;;;;;;6.95;4.20;;;1.30;96.30;;;;;;5052130;28;20297;-63
2022/01/08 05:00:54;;;;;;;4.32;3.38;;;1.40;96.30;;;;;;5053150;28;20236;-61
2022/01/08 05:03:20;;;;;;;5.30;3.53;;;1.40;96.30;;;;;;5053457;28;20300;-59
2022/01/08 05:05:47;;;;;;;6.10;3.75;;;1.30;96.30;;;;;;5053316;28;20197;-62
2022/01/08 05:08:15;;;;;;;4.75;4.05;;;1.20;96.30;;;;;;5053237;28;20320;-62
2022/01/08 05:10:42;;;;;;;4.28;2.95;;;1.10;96.30;;;;;;5053107;28;20239;-62
2022/01/08 05:13:09;;;;;;;5.00;3.63;;;1.10;96.30;;;;;;5051807;28;20209;-64
2022/01/08 05:15:36;;;;;;;4.60;3.42;;;1.10;96.30;;;;;;5053051;28;20232;-73
2022/01/08 05:18:06;;;;;;;5.30;3.72;;;1.10;96.30;;;;;;5053139;28;20239;-71
2022/01/08 05:20:36;;;;;;;3.95;3.20;;;1.00;96.30;;;;;;5053034;28;20657;-74
2022/01/08 05:23:04;;;;;;;3.33;3.03;;;1.10;96.30;;;;;;5053086;28;20202;-70
2022/01/08 05:25:32;;;;;;;3.47;3.15;;;1.10;96.30;;;;;;5052949;28;20208;-78
2022/01/08 05:27:59;;;;;;;3.50;3.05;;;1.10;96.30;;;;;;5051866;28;20553;-67
2022/01/08 05:30:27;;;;;;;2.97;2.67;;;1.10;96.30;;;;;;5052846;28;20197;-75
2022/01/08 05:32:55;;;;;;;4.38;2.75;;;1.10;96.30;;;;;;5053252;28;20208;-65
2022/01/08 05:35:24;;;;;;;3.78;2.67;;;1.10;96.30;;;;;;5053136;28;20208;-72
2022/01/08 05:37:51;;;;;;;3.40;3.08;;;1.20;96.30;;;;;;5052845;28;20197;-68
2022/01/08 05:40:18;;;;;;;3.60;2.95;;;1.30;96.30;;;;;;5052885;28;20216;-63
2022/01/08 05:42:47;;;;;;;4.05;2.90;;;1.50;96.30;;;;;;5051510;28;20300;-67
2022/01/08 05:45:14;;;;;;;3.67;2.85;;;1.50;96.30;;;;;;5052564;28;20206;-70
2022/01/08 05:47:41;;;;;;;3.20;3.00;;;1.40;96.30;;;;;;5052814;28;20225;-67
2022/01/08 05:50:10;;;;;;;3.92;2.67;;;1.50;96.30;;;;;;5052819;28;20577;-68
2022/01/08 05:52:37;;;;;;;2.75;2.55;;;1.60;96.30;;;;;;5052691;28;20215;-65
2022/01/08 05:55:04;;;;;;;2.92;2.67;;;1.60;96.30;;;;;;5052787;28;20208;-63
2022/01/08 05:57:31;;;;;;;2.90;2.70;;;1.70;96.30;;;;;;5051395;28;20681;-62
2022/01/08 06:00:01;;;;;;;3.22;2.53;;;1.70;96.30;;;;;;5052435;28;20221;-62
2022/01/08 06:02:28;;;;;;;2.10;2.00;;;1.80;95.90;;;;;;5052737;28;20197;-62
2022/01/08 06:04:55;;;;;;;2.25;2.08;;;1.80;95.90;;;;;;5052630;28;20209;-61
2022/01/08 06:07:21;;;;;;;2.20;2.05;;;1.80;95.60;;;;;;5052367;28;20427;-64
2022/01/08 06:09:48;;;;;;;1.70;1.60;;;1.90;95.50;;;;;;5052722;28;20562;-63
2022/01/08 06:12:15;;;;;;;1.85;1.75;;;2.00;95.00;;;;;;5051172;28;20324;-61
2022/01/08 06:14:42;;;;;;;2.47;2.05;;;1.90;94.40;;;;;;5052262;28;20664;-65
2022/01/08 06:17:12;;;;;;;2.10;2.00;;;1.80;94.40;;;;;;5052752;28;20224;-61
2022/01/08 06:19:39;;;;;;;1.63;1.52;;;1.70;94.30;;;;;;5052485;28;20213;-61
2022/01/08 06:22:06;;;;;;;1.63;1.52;;;1.70;94.20;;;;;;5052394;28;20235;-61
2022/01/08 06:24:33;;;;;;;1.52;1.42;;;1.50;93.90;;;;;;5052545;28;20209;-65
2022/01/08 06:27:00;;;;;;;1.75;1.65;;;1.40;94.30;;;;;;5051095;28;20208;-60
2022/01/08 06:29:27;;;;;;;1.92;1.83;;;1.30;94.40;;;;;;5052260;28;20319;-66
2022/01/08 06:31:54;;;;;;;1.80;1.70;;;1.20;94.80;;;;;;5052322;28;20600;-66
2022/01/08 06:34:22;;;;;;;2.30;2.10;;;1.20;94.90;;;;;;5052187;28;20208;-61
2022/01/08 06:36:49;;;;;;;2.10;2.00;;;1.20;95.10;;;;;;5052315;28;20240;-65
2022/01/08 06:39:17;;;;;;;1.80;1.70;;;1.20;94.90;;;;;;5052207;28;20623;-65
2022/01/08 06:41:44;;;;;;;2.08;1.98;;;1.20;94.80;;;;;;5050853;28;20675;-63
2022/01/08 06:44:11;;;;;;;2.00;1.90;;;1.30;94.90;;;;;;5052042;28;20216;-66
2022/01/08 06:46:38;;;;;;;1.70;1.60;;;1.30;94.60;;;;;;5052259;28;20208;-62
2022/01/08 06:49:05;;;;;;;2.15;2.05;;;1.20;94.60;;;;;;5053479;28;20783;-62
2022/01/08 06:51:34;;;;;;;2.55;2.35;;;1.20;94.70;;;;;;5055799;28;20711;-63
2022/01/08 06:54:01;;;;;;;2.03;1.92;;;1.10;94.70;;;;;;5055926;28;20206;-62
2022/01/08 06:56:27;;;;;;;2.15;2.03;;;1.20;95.00;;;;;;5054426;28;20206;-62
2022/01/08 06:58:55;;;;;;;1.80;1.70;;;1.20;94.90;;;;;;5055639;28;21543;-62
2022/01/08 07:01:22;;;;;;;2.45;2.25;;;1.20;94.60;;;;;;5055550;28;20205;-61
2022/01/08 07:03:50;;;;;;;2.00;1.90;;;1.20;94.40;;;;;;5055619;28;20224;-63
2022/01/08 07:06:16;;;;;;;2.10;2.00;;;1.10;94.30;;;;;;5055559;28;20739;-60
2022/01/08 07:08:45;;;;;;;2.30;2.10;;;1.10;94.30;;;;;;5055438;28;20229;-62
2022/01/08 07:11:12;;;;;;;2.47;2.13;;;1.20;94.30;;;;;;5054390;28;20261;-61
2022/01/08 07:13:38;;;;;;;2.30;2.20;;;1.20;93.90;;;;;;5055372;28;20206;-64
2022/01/08 07:16:07;;;;;;;6.50;2.60;;;1.20;93.70;;;;;;5055117;28;20201;-60
2022/01/08 07:18:34;;;;;;;2.30;2.20;;;1.20;93.40;;;;;;5055349;28;20205;-61
2022/01/08 07:21:00;;;;;;;2.17;2.05;;;1.10;93.40;;;;;;5055328;28;20212;-61
2022/01/08 07:23:27;;;;;;;2.42;2.17;;;1.10;93.80;;;;;;5055384;28;20229;-60
2022/01/08 07:25:56;;;;;;;2.63;1.90;;;1.10;93.80;;;;;;5055237;28;20204;-59
2022/01/08 07:28:22;;;;;;;2.90;2.70;;;1.20;93.70;;;;;;5053763;28;20235;-61
2022/01/08 07:30:49;;;;;;;2.90;2.70;;;1.20;93.50;;;;;;5054856;28;20212;-60
2022/01/08 07:33:16;;;;;;;2.75;2.55;;;1.20;93.40;;;;;;5055222;28;20197;-60
2022/01/08 07:35:43;;;;;;;3.78;2.90;;;1.20;93.40;;;;;;5055042;28;20204;-60
2022/01/08 07:38:10;;;;;;;5.00;3.00;;;1.20;93.40;;;;;;5055013;28;20213;-61
2022/01/08 07:40:37;;;;;;;2.65;2.42;;;1.30;93.40;;;;;;5054932;28;20206;-60
2022/01/08 07:43:06;;;;;;;3.05;2.85;;;1.30;93.30;;;;;;5053517;28;20240;-60
2022/01/08 07:45:33;;;;;;;4.57;3.30;;;1.30;93.00;;;;;;5054754;28;20209;-59
2022/01/08 07:48:00;;;;;;;3.40;3.00;;;1.40;93.20;;;;;;5054752;28;20201;-60
2022/01/08 07:50:27;;;;;;;3.22;3.03;;;1.40;92.90;;;;;;5054845;28;20201;-59
2022/01/08 07:52:53;;;;;;;5.65;3.20;;;1.50;92.50;;;;;;5054734;28;20561;-59
2022/01/08 07:55:20;;;;;;;4.68;3.15;;;1.40;92.20;;;;;;5054760;28;20211;-59
2022/01/08 07:57:47;;;;;;;6.88;3.67;;;1.50;92.20;;;;;;5053194;28;20201;-59
2022/01/08 08:00:16;;;;;;;4.05;3.65;;;1.40;92.20;;;;;;5053363;28;20226;-59
2022/01/08 08:02:43;;;;;;;3.45;3.20;;;1.40;92.40;;;;;;5054534;28;20248;-59
2022/01/08 08:05:10;;;;;;;4.28;3.40;;;1.40;92.90;;;;;;5054454;28;20202;-59
2022/01/08 08:07:38;;;;;;;4.72;3.35;;;1.30;93.00;;;;;;5054314;28;20241;-58
2022/01/08 08:10:07;;;;;;;3.53;3.20;;;1.30;93.30;;;;;;5054159;28;20240;-60
2022/01/08 08:12:34;;;;;;;7.22;4.07;;;1.30;93.20;;;;;;5052914;28;20216;-60
2022/01/08 08:15:01;;;;;;;4.80;3.10;;;1.30;93.50;;;;;;5054227;28;20216;-59
2022/01/08 08:17:29;;;;;;;3.70;3.40;;;1.40;93.10;;;;;;5054337;28;20202;-67
2022/01/08 08:19:56;;;;;;;4.50;3.50;;;1.30;92.30;;;;;;5054061;28;20634;-60
2022/01/08 08:22:23;;;;;;;6.30;3.55;;;1.30;92.30;;;;;;5054082;28;20666;-60
2022/01/08 08:24:50;;;;;;;3.15;2.90;;;1.30;92.80;;;;;;5054026;28;20239;-58
2022/01/08 08:27:16;;;;;;;3.40;3.10;;;1.40;92.40;;;;;;5052702;28;20205;-60
2022/01/08 08:29:43;;;;;;;4.38;2.78;;;1.40;91.50;;;;;;5053853;28;20236;-58
2022/01/08 08:32:10;;;;;;;3.55;3.25;;;1.40;91.30;;;;;;5053920;28;20208;-60
2022/01/08 08:34:39;;;;;;;3.75;3.10;;;1.50;91.80;;;;;;5054014;28;20201;-59
2022/01/08 08:37:06;;;;;;;5.85;3.10;;;1.50;91.60;;;;;;5053887;28;20205;-59
2022/01/08 08:39:33;;;;;;;3.50;3.00;;;1.50;90.50;;;;;;5053731;28;20197;-59
2022/01/08 08:42:00;;;;;;;3.60;3.38;;;1.50;90.20;;;;;;5052460;28;20653;-59
2022/01/08 08:44:28;;;;;;;3.35;3.15;;;1.40;89.90;;;;;;5053577;28;20297;-59
2022/01/08 08:46:54;;;;;;;3.50;3.30;;;1.30;90.10;;;;;;5053623;28;20208;-58
2022/01/08 08:49:21;;;;;;;3.60;3.30;;;1.30;90.30;;;;;;5053575;28;20233;-60
2022/01/08 08:51:50;;;;;;;3.50;3.28;;;1.30;90.00;;;;;;5053631;28;20205;-58
2022/01/08 08:54:16;;;;;;;4.00;3.70;;;1.30;90.20;;;;;;5053379;28;20726;-60
2022/01/08 08:56:43;;;;;;;3.40;3.20;;;1.40;90.20;;;;;;5052204;28;20570;-59
2022/01/08 08:59:11;;;;;;;4.60;4.20;;;1.30;89.70;;;;;;5053316;28;20226;-58
2022/01/08 09:01:38;;;;;;;4.00;3.80;;;1.30;90.00;;;;;;5053194;28;20205;-57
2022/01/08 09:04:05;;;;;;;4.95;4.50;;;1.30;90.10;;;;;;5053352;28;20202;-58
2022/01/08 09:06:33;;;;;;;4.40;4.00;;;1.20;89.50;;;;;;5053211;28;20212;-58
2022/01/08 09:09:01;;;;;;;4.82;4.40;;;1.20;90.00;;;;;;5053099;28;20323;-58
2022/01/08 09:11:29;;;;;;;4.45;4.25;;;1.10;89.90;;;;;;5051545;28;20240;-59
2022/01/08 09:13:56;;;;;;;4.25;3.97;;;1.10;90.30;;;;;;5053141;28;20702;-58
2022/01/08 09:16:22;;;;;;;4.57;4.18;;;1.10;91.10;;;;;;5053036;28;20233;-58
2022/01/08 09:18:50;;;;;;;4.70;4.30;;;1.20;90.90;;;;;;5053076;28;20613;-57
2022/01/08 09:21:17;;;;;;;4.68;4.28;;;1.20;90.50;;;;;;5052817;28;20295;-57
2022/01/08 09:23:44;;;;;;;4.60;4.28;;;1.30;90.50;;;;;;5053034;28;20677;-58
2022/01/08 09:26:12;;;;;;;6.65;4.50;;;1.40;89.90;;;;;;5052345;28;20223;-59
2022/01/08 09:28:39;;;;;;;5.05;4.75;;;1.30;88.60;;;;;;5052873;28;20664;-58
2022/01/08 09:31:07;;;;;;;4.50;4.20;;;1.30;89.10;;;;;;5052765;28;20209;-59
2022/01/08 09:33:34;;;;;;;4.80;4.60;;;1.40;89.90;;;;;;5052963;28;20305;-58
2022/01/08 09:36:01;;;;;;;5.55;5.15;;;1.40;89.00;;;;;;5052868;28;20205;-59
2022/01/08 09:38:28;;;;;;;5.80;5.40;;;1.40;88.30;;;;;;5052858;28;20288;-58
2022/01/08 09:40:54;;;;;;;5.65;5.25;;;1.30;87.50;;;;;;5052826;28;20302;-59
2022/01/08 09:43:23;;;;;;;5.53;5.13;;;1.30;87.60;;;;;;5051538;28;20211;-60
2022/01/08 09:45:50;;;;;;;6.40;5.85;;;1.20;87.90;;;;;;5052670;28;20205;-58
2022/01/08 09:48:17;;;;;;;6.70;6.20;;;1.30;88.10;;;;;;5052734;28;20208;-59
2022/01/08 09:50:45;;;;;;;6.15;5.30;;;1.40;88.70;;;;;;5052624;28;20243;-59
2022/01/08 09:53:12;;;;;;;6.03;5.63;;;1.50;88.40;;;;;;5052706;28;20196;-58
2022/01/08 09:55:40;;;;;;;5.80;5.45;;;1.50;86.90;;;;;;5052677;28;20202;-59
2022/01/08 09:58:07;;;;;;;7.18;6.70;;;1.40;86.50;;;;;;5051191;28;20312;-59
2022/01/08 10:00:36;;;;;;;8.05;7.35;;;1.40;86.10;;;;;;5052460;28;20262;-59
2022/01/08 10:03:21;;;;;;;7.93;7.43;;;1.40;85.20;;;;;;5052428;28;20257;-59
2022/01/08 10:05:50;;;;;;;7.20;6.68;;;1.50;86.40;;;;;;5052689;28;20645;-59
2022/01/08 10:08:23;;;;;;;5.20;4.90;;;1.70;87.90;;;;;;5052572;28;20205;-59
2022/01/08 10:10:57;;;;;;;7.68;7.28;;;1.80;87.10;;;;;;5052293;28;20654;-58
2022/01/08 10:13:26;;;;;;;6.97;6.47;;;1.70;85.30;;;;;;5051246;28;20201;-59
2022/01/08 10:18:40;;;;;;;8.15;7.65;;;1.70;84.10;;;;;;5052529;28;20343;-59
2022/01/08 10:21:19;;;;;;;8.75;8.15;;;1.60;85.40;;;;;;5052437;28;20621;-59
2022/01/08 10:23:49;;;;;;;9.70;9.13;;;1.70;85.80;;;;;;5053396;28;20211;-59
2022/01/08 10:26:18;;;;;;;8.18;7.72;;;1.60;83.50;;;;;;5055121;28;20198;-58
2022/01/08 10:28:47;;;;;;;8.60;7.90;;;1.60;84.60;;;;;;5056252;28;20205;-58
2022/01/08 10:31:19;;;;;;;10.07;9.20;;;1.70;84.60;;;;;;5056054;28;20315;-56
2022/01/08 10:33:49;;;;;;;10.18;9.38;;;1.80;84.80;;;;;;5056415;28;20212;-56
2022/01/08 10:36:22;;;;;;;10.02;9.45;;;1.80;83.30;;;;;;5056114;28;20209;-57
2022/01/08 10:38:51;;;;;;;10.50;9.90;;;1.80;83.00;;;;;;5056063;28;20205;-58
2022/01/08 10:41:19;;;;;;;9.80;9.30;;;1.80;82.00;;;;;;5054865;28;20206;-59
2022/01/08 10:43:46;;;;;;;9.57;9.07;;;1.80;82.00;;;;;;5055982;28;20205;-58
2022/01/08 10:46:17;;;;;;;10.57;9.93;;;1.80;82.30;;;;;;5055840;28;20233;-57
2022/01/08 10:48:46;;;;;;;10.15;9.65;;;2.00;81.40;;;;;;5055779;28;20574;-58
2022/01/08 10:51:20;;;;;;;12.15;11.45;;;1.70;79.80;;;;;;5055737;28;20539;-58
2022/01/08 10:54:11;;;;;;;11.18;10.48;;;1.40;79.50;;;;;;5055809;28;20231;-59
2022/01/08 10:56:41;;;;;;;10.85;10.00;;;1.50;81.60;;;;;;5039840;28;20215;-56
2022/01/08 10:59:15;;;;;;;10.55;9.70;;;1.50;80.50;;;;;;5055613;28;20308;-57
2022/01/08 11:01:46;;;;;;;9.90;9.30;;;1.50;81.10;;;;;;5055602;28;20204;-57
2022/01/08 11:04:15;;;;;;;9.48;8.70;;;1.40;79.90;;;;;;5055747;28;20206;-57
2022/01/08 11:06:53;;;;;;;10.02;9.32;;;1.60;80.70;;;;;;5055549;28;20202;-61
2022/01/08 11:09:20;;;;;;;7.88;7.38;;;1.70;80.90;;;;;;5055357;28;20224;-58
2022/01/08 11:11:49;;;;;;;9.15;8.40;;;1.70;80.20;;;;;;5053904;28;20229;-59
2022/01/08 11:14:23;;;;;;;7.47;7.10;;;1.70;80.50;;;;;;5055288;28;20202;-58
2022/01/08 11:16:52;;;;;;;8.32;7.82;;;1.70;80.30;;;;;;5055206;28;20209;-57
2022/01/08 11:19:20;;;;;;;8.07;7.60;;;2.10;81.10;;;;;;5055364;28;20228;-56
2022/01/08 11:21:50;;;;;;;6.28;5.82;;;3.00;77.60;;;;;;5055282;28;20678;-58
2022/01/08 11:24:19;;;;;;;7.65;7.28;;;4.00;73.20;;;;;;5055171;28;20202;-57
2022/01/08 11:26:51;;;;;;;9.38;8.88;;;4.10;72.20;;;;;;5053982;28;20202;-57
2022/01/08 11:29:22;;;;;;;6.97;6.68;;;3.90;72.10;;;;;;5055183;28;20209;-58
2022/01/08 11:31:56;;;;;;;8.00;7.50;;;3.30;73.40;;;;;;5055370;28;20201;-58
2022/01/08 11:34:24;;;;;;;7.70;7.30;;;3.20;76.40;;;;;;5054866;28;20209;-58
2022/01/08 11:36:52;;;;;;;8.18;7.57;;;3.20;75.90;;;;;;5055010;28;20209;-58
2022/01/08 11:39:21;;;;;;;12.18;7.05;;;3.20;77.10;;;;;;5055040;28;20228;-57
2022/01/08 11:41:48;;;;;;;7.88;7.38;;;3.50;77.20;;;;;;5053692;28;20202;-58
2022/01/08 11:44:16;;;;;;;7.53;7.10;;;3.90;74.00;;;;;;5054913;28;20208;-57
2022/01/08 11:46:45;;;;;;;8.00;7.40;;;4.40;73.10;;;;;;5054733;28;20207;-57
2022/01/08 11:49:14;;;;;;;7.63;7.13;;;4.80;71.20;;;;;;5054785;28;20212;-59
2022/01/08 11:51:41;;;;;;;8.68;8.10;;;4.30;70.00;;;;;;5054840;28;20660;-58
2022/01/08 11:54:08;;;;;;;8.27;7.78;;;3.80;73.00;;;;;;5054741;28;20244;-57
2022/01/08 11:56:37;;;;;;;6.85;6.35;;;3.30;74.80;;;;;;5053367;28;20210;-57
2022/01/08 11:59:06;;;;;;;8.02;7.60;;;3.10;76.30;;;;;;5054527;28;20664;-57
2022/01/08 12:01:34;;;;;;;7.70;7.30;;;2.90;75.90;;;;;;5054083;28;20209;-57
2022/01/08 12:04:01;;;;;;;6.07;5.70;;;2.70;77.40;;;;;;5054313;28;20656;-59
2022/01/08 12:06:35;;;;;;;7.50;6.90;;;2.60;78.50;;;;;;5054359;28;20686;-58
2022/01/08 12:09:19;;;;;;;6.03;5.72;;;2.50;78.10;;;;;;5054550;28;20295;-58
2022/01/08 12:11:58;;;;;;;7.57;7.03;;;2.50;78.90;;;;;;5052977;28;20233;-60
2022/01/08 12:14:27;;;;;;;6.22;5.75;;;2.50;79.10;;;;;;5054104;28;20668;-57
2022/01/08 12:16:54;;;;;;;6.80;6.40;;;2.50;79.60;;;;;;5054264;28;20201;-57
2022/01/08 12:19:30;;;;;;;6.13;5.18;;;2.40;79.70;;;;;;5054157;28;20201;-57
2022/01/08 12:21:59;;;;;;;6.32;5.93;;;2.60;80.10;;;;;;5054187;28;20223;-58
2022/01/08 12:24:36;;;;;;;6.95;6.20;;;3.00;79.10;;;;;;5054039;28;20236;-57
2022/01/08 12:27:18;;;;;;;6.15;5.63;;;3.40;77.10;;;;;;5052613;28;20701;-57
2022/01/08 12:29:45;;;;;;;6.93;6.43;;;4.30;75.70;;;;;;5053908;28;20315;-59
2022/01/08 12:32:35;;;;;;;6.78;6.47;;;4.90;73.10;;;;;;5053714;28;20701;-58
2022/01/08 12:35:22;;;;;;;8.40;7.90;;;4.60;73.40;;;;;;5051108;28;20217;-57
2022/01/08 12:37:52;;;;;;;9.13;8.55;;;4.30;73.60;;;;;;5053794;28;20255;-60
2022/01/08 12:40:39;;;;;;;8.00;7.50;;;3.80;74.70;;;;;;5053715;28;20210;-58
2022/01/08 12:43:33;;;;;;;8.30;7.80;;;3.40;76.70;;;;;;5052449;28;20236;-58
2022/01/08 12:46:21;;;;;;;7.90;7.60;;;3.20;78.70;;;;;;5053098;28;20335;-58
2022/01/08 12:49:14;;;;;;;8.35;7.55;;;3.20;77.80;;;;;;5053594;28;20205;-59
2022/01/08 12:51:43;;;;;;;7.75;7.25;;;3.50;78.90;;;;;;5053581;28;20239;-59
2022/01/08 12:54:13;;;;;;;8.00;7.47;;;4.00;77.00;;;;;;5053397;28;20208;-58
2022/01/08 12:56:47;;;;;;;7.50;7.10;;;4.90;74.70;;;;;;5052085;28;20274;-58
2022/01/08 12:59:14;;;;;;;6.68;6.38;;;5.50;70.80;;;;;;5053435;28;20201;-57
2022/01/08 13:01:45;;;;;;;8.02;7.63;;;5.00;69.50;;;;;;5053414;28;20201;-57
2022/01/08 13:04:16;;;;;;;7.90;7.50;;;4.50;72.10;;;;;;5053366;28;20303;-62
2022/01/08 13:06:43;;;;;;;7.70;7.40;;;4.20;72.60;;;;;;5053093;28;20560;-57
2022/01/08 13:09:12;;;;;;;8.00;7.55;;;4.00;73.40;;;;;;5053329;28;20206;-59
2022/01/08 13:11:41;;;;;;;7.75;7.25;;;4.20;74.70;;;;;;5051731;28;20279;-58
2022/01/08 13:14:11;;;;;;;8.13;7.63;;;4.30;72.90;;;;;;5053150;28;20232;-59
2022/01/08 13:16:41;;;;;;;8.48;7.80;;;4.30;73.10;;;;;;5052970;28;20201;-58
2022/01/08 13:19:10;;;;;;;7.95;7.45;;;4.10;73.10;;;;;;5053112;28;20211;-58
2022/01/08 13:21:40;;;;;;;7.25;6.85;;;3.70;72.70;;;;;;5053079;28;20209;-59
2022/01/08 13:24:16;;;;;;;7.47;7.10;;;3.40;73.70;;;;;;5053101;28;20201;-58